M I D A S
Marine Information and Data Acquisition System
Tripno 1958 of the Zeeleeuw from 2010-09-09 08:09:41 to 2010-09-09 16:25:01
Back to CruiseResearch ActivitiesStationsMapUnderway DataData graphs

EquipmentUnitsComment
TimeDGPSUTC
LatitudeDGPSDM.mWGS84
LongitudeDGPSDM.mWGS84
HeadingGyrodeg 
SOGDGPSknotsSpeed over ground
COGDGPSdegCourse over ground
DepthEcho soundermeters200 kHz
Missing or incorrect values are displayed as -999
Navigation data collected by the RV Zeeleeuw from 2010-09-09 06:27:41 to 2010-09-09 16:33:28
                                                                                    Next 1000 lines
Time Latitude Longitude Heading SOG COG Depth
2010-09-09 06:27:50 51°13.661 2°55.96 112.3 0.1 178 4.5
2010-09-09 06:27:56 51°13.661 2°55.96 111.9 -999 191 -999
2010-09-09 06:28:01 51°13.661 2°55.96 111.6 -999 266 4.6
2010-09-09 06:28:05 51°13.661 2°55.96 111.2 -999 225 4.6
2010-09-09 06:28:10 51°13.66 2°55.96 110.9 -999 286 4.6
2010-09-09 06:28:15 51°13.66 2°55.96 110.5 0.2 323 4.6
2010-09-09 06:28:20 51°13.661 2°55.959 110.4 0.4 286 4.6
2010-09-09 06:28:25 51°13.662 2°55.958 110.6 0.6 295 4.5
2010-09-09 06:28:30 51°13.662 2°55.956 110.6 1 292 -999
2010-09-09 06:28:35 51°13.663 2°55.953 110.6 1.3 292 4.6
2010-09-09 06:28:40 51°13.664 2°55.949 110.3 1.6 293 4.7
2010-09-09 06:28:45 51°13.666 2°55.945 109.7 2 293 4.8
2010-09-09 06:28:50 51°13.667 2°55.94 109.4 2.3 294 -999
2010-09-09 06:28:56 51°13.67 2°55.934 109.3 2.5 293 -999
2010-09-09 06:29:01 51°13.671 2°55.928 109.3 2.8 294 -999
2010-09-09 06:29:05 51°13.672 2°55.923 109.6 3.1 295 -999
2010-09-09 06:29:11 51°13.674 2°55.915 109.7 3.2 294 -999
2010-09-09 06:29:16 51°13.676 2°55.908 109.7 3.4 295 -999
2010-09-09 06:29:21 51°13.678 2°55.901 108.9 3.6 293 -999
2010-09-09 06:29:25 51°13.68 2°55.895 107.7 3.7 292 -999
2010-09-09 06:29:30 51°13.682 2°55.887 106.1 3.9 290 -999
2010-09-09 06:29:36 51°13.684 2°55.877 104.3 4 289 -999
2010-09-09 06:29:41 51°13.686 2°55.868 102.4 4.1 286 -999
2010-09-09 06:29:45 51°13.687 2°55.861 100.2 4.2 284 -999
2010-09-09 06:29:51 51°13.688 2°55.85 98.1 4.2 283 -999
2010-09-09 06:29:56 51°13.689 2°55.841 96.3 4.2 281 -999
2010-09-09 06:30:01 51°13.69 2°55.832 93.8 4.1 279 -999
2010-09-09 06:30:06 51°13.691 2°55.824 91.8 4.1 278 -999
2010-09-09 06:30:11 51°13.692 2°55.815 90.1 4 276 -999
2010-09-09 06:30:16 51°13.692 2°55.806 88.1 3.9 274 -999
2010-09-09 06:30:21 51°13.692 2°55.797 85.5 3.8 272 10
2010-09-09 06:30:25 51°13.692 2°55.791 84 3.7 270 11
2010-09-09 06:30:30 51°13.692 2°55.783 82.1 3.6 269 11.3
2010-09-09 06:30:35 51°13.691 2°55.775 80.3 3.4 266 11.4
2010-09-09 06:30:40 51°13.691 2°55.768 78.2 3.2 265 11.6
2010-09-09 06:30:45 51°13.69 2°55.761 75.7 3.1 264 11.9
2010-09-09 06:30:50 51°13.69 2°55.756 74.4 2.8 263 11.6
2010-09-09 06:30:55 51°13.689 2°55.751 72.5 2.3 262 11.1
2010-09-09 06:31:00 51°13.69 2°55.747 70.1 1.7 267 11.1
2010-09-09 06:31:05 51°13.69 2°55.745 67.1 1 278 11.4
2010-09-09 06:31:09 51°13.69 2°55.744 63.3 0.7 298 11.4
2010-09-09 06:31:14 51°13.691 2°55.744 58.2 0.5 324 11.5
2010-09-09 06:31:19 51°13.691 2°55.743 53.5 0.6 349 11.5
2010-09-09 06:31:24 51°13.692 2°55.744 48.7 0.8 4 11.4
2010-09-09 06:31:29 51°13.693 2°55.744 43.7 1 5 11.5
2010-09-09 06:31:33 51°13.694 2°55.744 38.6 1.1 6 11.6
2010-09-09 06:31:38 51°13.696 2°55.744 33.7 1.2 7 11.6
2010-09-09 06:31:43 51°13.698 2°55.745 28.8 1.4 6 11.6
2010-09-09 06:31:48 51°13.7 2°55.745 24 1.6 4 11.2
2010-09-09 06:31:53 51°13.703 2°55.745 19.4 1.8 3 11.2
2010-09-09 06:31:58 51°13.706 2°55.745 14.1 2 -999 11.7
2010-09-09 06:32:03 51°13.709 2°55.745 8.5 2.3 356 11.8
2010-09-09 06:32:07 51°13.712 2°55.744 2.6 2.5 352 12.3
2010-09-09 06:32:12 51°13.715 2°55.743 356.5 2.8 347 12
2010-09-09 06:32:17 51°13.72 2°55.74 350.4 3.1 343 11.6
2010-09-09 06:32:22 51°13.724 2°55.737 344.9 3.5 340 11.2
2010-09-09 06:32:27 51°13.729 2°55.734 339.8 4 334 10.6
2010-09-09 06:32:32 51°13.735 2°55.73 335.6 4.4 332 10.5
2010-09-09 06:32:37 51°13.74 2°55.724 332.9 4.6 330 10.5
2010-09-09 06:32:41 51°13.745 2°55.719 330.7 5 328 10
2010-09-09 06:32:47 51°13.752 2°55.711 328.7 5.4 325 9.8
2010-09-09 06:32:52 51°13.759 2°55.704 327 5.8 325 9.7
2010-09-09 06:32:57 51°13.766 2°55.695 325.3 6.1 323 9.7
2010-09-09 06:33:02 51°13.773 2°55.686 323.9 6.6 323 9.7
2010-09-09 06:33:07 51°13.781 2°55.677 323.8 6.9 323 10.1
2010-09-09 06:33:12 51°13.789 2°55.668 324.2 7.2 324 10
2010-09-09 06:33:17 51°13.797 2°55.658 324.9 7.4 325 10.1
2010-09-09 06:33:22 51°13.806 2°55.649 325.5 7.7 326 10.1
2010-09-09 06:33:27 51°13.816 2°55.64 326.8 7.9 328 10
2010-09-09 06:33:32 51°13.825 2°55.631 328.9 8.1 330 9.8
2010-09-09 06:33:37 51°13.836 2°55.623 331.6 8.2 333 9.7
2010-09-09 06:33:42 51°13.846 2°55.614 333.1 8.4 333 9.3
2010-09-09 06:33:47 51°13.857 2°55.606 334.4 8.6 335 9.2
2010-09-09 06:33:52 51°13.868 2°55.599 336.5 8.7 337 8.9
2010-09-09 06:33:57 51°13.879 2°55.592 338.1 8.8 338 8.8
2010-09-09 06:34:01 51°13.888 2°55.585 338.4 8.9 337 9.9
2010-09-09 06:34:07 51°13.902 2°55.577 339 9.1 338 9.1
2010-09-09 06:34:12 51°13.914 2°55.569 339.1 9.2 338 9.3
2010-09-09 06:34:17 51°13.926 2°55.561 339.1 9.3 338 9.4
2010-09-09 06:34:22 51°13.938 2°55.554 339.1 9.4 338 9.5
2010-09-09 06:34:27 51°13.951 2°55.545 338.9 9.5 338 9.3
2010-09-09 06:34:32 51°13.963 2°55.538 339 9.6 339 9.4
2010-09-09 06:34:37 51°13.975 2°55.529 338.7 9.7 337 9.4
2010-09-09 06:34:42 51°13.988 2°55.521 338.8 9.7 339 9.3
2010-09-09 06:34:47 51°14.001 2°55.514 339.6 9.8 339 9.4
2010-09-09 06:34:52 51°14.013 2°55.506 339.5 9.9 339 9.2
2010-09-09 06:34:57 51°14.026 2°55.498 338.9 9.9 338 9.2
2010-09-09 06:35:02 51°14.039 2°55.49 338.7 9.9 338 9.1
2010-09-09 06:35:07 51°14.052 2°55.481 338.7 10 338 -999
2010-09-09 06:35:13 51°14.067 2°55.471 338.7 10 338 9.4
2010-09-09 06:35:17 51°14.077 2°55.464 338.5 10 337 9.3
2010-09-09 06:35:22 51°14.09 2°55.455 337.9 10.1 336 9.6
2010-09-09 06:35:27 51°14.103 2°55.446 337.6 10.1 336 9.6
2010-09-09 06:35:32 51°14.115 2°55.437 337 10.1 334 9.5
2010-09-09 06:35:37 51°14.128 2°55.427 336 10 333 9.4
2010-09-09 06:35:42 51°14.14 2°55.417 335 10 333 9.3
2010-09-09 06:35:47 51°14.152 2°55.405 332.8 10 330 9.6
2010-09-09 06:35:53 51°14.166 2°55.392 331.7 10 330 -999
2010-09-09 06:35:58 51°14.178 2°55.381 331.5 10.1 330 9.5
2010-09-09 06:36:03 51°14.19 2°55.369 330.7 10.1 329 9.6
2010-09-09 06:36:08 51°14.202 2°55.358 330.1 10.1 329 9.3
2010-09-09 06:36:13 51°14.214 2°55.346 329.6 10.2 328 -999
2010-09-09 06:36:18 51°14.226 2°55.333 329.2 10.2 328 9.8
2010-09-09 06:36:23 51°14.238 2°55.321 328.7 10.2 327 9.2
2010-09-09 06:36:28 51°14.25 2°55.309 328.1 10.2 327 9.3
2010-09-09 06:36:33 51°14.262 2°55.297 327.8 10.2 327 9.1
2010-09-09 06:36:37 51°14.271 2°55.287 327.9 10.2 327 9.4
2010-09-09 06:36:42 51°14.283 2°55.275 328.7 10.2 329 9.1
2010-09-09 06:36:47 51°14.296 2°55.264 329.6 10.2 329 8.9
2010-09-09 06:36:52 51°14.308 2°55.252 330.1 10.3 329 9.2
2010-09-09 06:36:57 51°14.32 2°55.241 330.6 10.3 330 9
2010-09-09 06:37:01 51°14.33 2°55.232 331 10.3 330 8.9
2010-09-09 06:37:07 51°14.345 2°55.218 331.4 10.3 330 9.4
2010-09-09 06:37:12 51°14.358 2°55.207 331.8 10.3 331 8.6
2010-09-09 06:37:17 51°14.37 2°55.196 332 10.3 330 8.8
2010-09-09 06:37:22 51°14.382 2°55.184 331.6 10.3 330 8.7
2010-09-09 06:37:27 51°14.395 2°55.173 331.7 10.3 330 8.8
2010-09-09 06:37:32 51°14.407 2°55.161 331 10.4 328 9.1
2010-09-09 06:37:37 51°14.419 2°55.149 330.1 10.5 329 9.1
2010-09-09 06:37:42 51°14.432 2°55.137 330.2 10.6 329 8.8
2010-09-09 06:37:47 51°14.445 2°55.125 331 10.8 330 9.1
2010-09-09 06:37:52 51°14.458 2°55.113 332.2 11 331 8.9
2010-09-09 06:37:57 51°14.471 2°55.1 331.8 11.2 329 9.1
2010-09-09 06:38:02 51°14.485 2°55.086 330.1 11.3 328 9.2
2010-09-09 06:38:07 51°14.498 2°55.073 329.3 11.5 328 9.3
2010-09-09 06:38:12 51°14.512 2°55.059 329 11.6 328 9.3
2010-09-09 06:38:17 51°14.526 2°55.046 329.8 11.8 328 9.5
2010-09-09 06:38:22 51°14.539 2°55.03 329.4 11.9 325 9.6
2010-09-09 06:38:27 51°14.553 2°55.014 328 12.1 323 9.7
2010-09-09 06:38:32 51°14.566 2°54.998 326.7 12.3 323 9.7
2010-09-09 06:38:37 51°14.58 2°54.981 327.6 12.5 324 9.6
2010-09-09 06:38:42 51°14.594 2°54.965 329.6 12.6 324 9.7
2010-09-09 06:38:47 51°14.608 2°54.947 329.5 12.8 321 9.6
2010-09-09 06:38:52 51°14.622 2°54.929 328.7 12.9 322 9.8
2010-09-09 06:38:57 51°14.636 2°54.912 329.5 12.9 323 9.6
2010-09-09 06:39:01 51°14.648 2°54.898 329.5 12.9 322 9.7
2010-09-09 06:39:07 51°14.664 2°54.876 328.1 13 320 9.7
2010-09-09 06:39:12 51°14.678 2°54.857 326.7 13.1 319 9.7
2010-09-09 06:39:17 51°14.692 2°54.838 325.9 13.1 319 9.7
2010-09-09 06:39:22 51°14.705 2°54.818 325.1 13.1 317 9.6
2010-09-09 06:39:27 51°14.718 2°54.798 324.2 13 317 9.7
2010-09-09 06:39:32 51°14.731 2°54.778 323.8 13 316 9.8
2010-09-09 06:39:37 51°14.745 2°54.758 323.3 13 316 9.7
2010-09-09 06:39:42 51°14.758 2°54.738 322.9 13.1 316 9.7
2010-09-09 06:39:47 51°14.771 2°54.719 322.8 13 317 9.6
2010-09-09 06:39:52 51°14.784 2°54.699 323.2 13 316 9.7
2010-09-09 06:39:57 51°14.797 2°54.679 323.2 13 316 9.5
2010-09-09 06:40:01 51°14.807 2°54.663 323.3 13 317 9.5
2010-09-09 06:40:07 51°14.823 2°54.639 323.4 13 317 9.4
2010-09-09 06:40:12 51°14.836 2°54.62 323.9 13 318 9.4
2010-09-09 06:40:17 51°14.85 2°54.602 325.9 12.9 321 9.4
2010-09-09 06:40:21 51°14.861 2°54.588 327.8 12.9 321 9.6
2010-09-09 06:40:27 51°14.878 2°54.568 328.9 12.8 324 9.3
2010-09-09 06:40:32 51°14.893 2°54.551 330.1 12.9 324 9.4
2010-09-09 06:40:37 51°14.907 2°54.535 330.9 12.8 326 8.9
2010-09-09 06:40:42 51°14.922 2°54.519 331.7 12.8 325 8.8
2010-09-09 06:40:46 51°14.934 2°54.507 332.5 12.7 327 8.8
2010-09-09 06:40:52 51°14.951 2°54.488 332.8 12.6 326 8.7
2010-09-09 06:40:57 51°14.966 2°54.473 332.8 12.6 328 8.6
2010-09-09 06:41:01 51°14.978 2°54.46 333.2 12.6 327 8.5
2010-09-09 06:41:07 51°14.995 2°54.443 333.2 12.6 328 8.5
2010-09-09 06:41:12 51°15.01 2°54.428 333.5 12.5 328 8.4
2010-09-09 06:41:17 51°15.025 2°54.414 334.1 12.5 328 8.5
2010-09-09 06:41:22 51°15.04 2°54.4 334.6 12.5 329 8.5
2010-09-09 06:41:27 51°15.054 2°54.384 334.3 12.6 327 8.4
2010-09-09 06:41:32 51°15.069 2°54.369 333 12.6 326 8.3
2010-09-09 06:41:37 51°15.083 2°54.352 332.1 12.7 325 8.4
2010-09-09 06:41:42 51°15.097 2°54.336 330.9 12.7 324 8.3
2010-09-09 06:41:47 51°15.111 2°54.319 330.3 12.7 323 8.5
2010-09-09 06:41:52 51°15.125 2°54.302 329.7 12.8 322 8.7
2010-09-09 06:41:57 51°15.139 2°54.284 328.8 12.8 321 8.7
2010-09-09 06:42:01 51°15.15 2°54.27 328.4 12.9 321 8.6
2010-09-09 06:42:07 51°15.167 2°54.248 328.1 12.9 320 8.7
2010-09-09 06:42:12 51°15.181 2°54.231 328 12.9 322 8.7
2010-09-09 06:42:17 51°15.195 2°54.213 328.5 12.9 321 8.7
2010-09-09 06:42:22 51°15.209 2°54.196 329.2 12.9 323 8.8
2010-09-09 06:42:27 51°15.224 2°54.178 329.9 12.9 323 8.8
2010-09-09 06:42:32 51°15.238 2°54.162 330.6 12.9 324 8.8
2010-09-09 06:42:37 51°15.252 2°54.145 330.9 12.9 324 8.9
2010-09-09 06:42:41 51°15.264 2°54.131 331 12.9 324 8.9
2010-09-09 06:42:47 51°15.281 2°54.111 331.2 13 324 9
2010-09-09 06:42:52 51°15.296 2°54.094 331.1 12.9 324 9
2010-09-09 06:42:57 51°15.31 2°54.077 331.1 12.9 324 8.8
2010-09-09 06:43:02 51°15.325 2°54.061 331.1 12.9 324 8.9
2010-09-09 06:43:07 51°15.339 2°54.044 331.3 12.9 324 9
2010-09-09 06:43:12 51°15.354 2°54.027 331.5 12.9 324 9.1
2010-09-09 06:43:17 51°15.369 2°54.01 331.2 12.9 324 9.1
2010-09-09 06:43:21 51°15.38 2°53.997 331 13 323 9.1
2010-09-09 06:43:27 51°15.398 2°53.976 330.4 13 324 9.1
2010-09-09 06:43:32 51°15.412 2°53.959 330.5 13 323 9.2
2010-09-09 06:43:37 51°15.426 2°53.942 330.2 13 323 9.3
2010-09-09 06:43:42 51°15.441 2°53.925 330 13 323 9.3
2010-09-09 06:43:47 51°15.455 2°53.907 329.8 13 323 9.3
2010-09-09 06:43:52 51°15.47 2°53.891 330.5 13 325 9.2
2010-09-09 06:43:57 51°15.485 2°53.874 331.6 13 324 9.4
2010-09-09 06:44:02 51°15.5 2°53.858 332.5 13 326 9.4
2010-09-09 06:44:07 51°15.514 2°53.842 332.8 13 326 9.5
2010-09-09 06:44:12 51°15.53 2°53.826 333.4 12.9 327 9.5
2010-09-09 06:44:17 51°15.544 2°53.811 334 12.9 327 9.3
2010-09-09 06:44:22 51°15.56 2°53.795 334.2 12.9 328 9.8
2010-09-09 06:44:27 51°15.575 2°53.78 334.2 13 327 9.4
2010-09-09 06:44:32 51°15.59 2°53.764 334 12.9 327 9.5
2010-09-09 06:44:37 51°15.605 2°53.748 334 12.9 326 9.4
2010-09-09 06:44:41 51°15.617 2°53.736 333.6 12.9 326 9.8
2010-09-09 06:44:47 51°15.635 2°53.717 333.6 13 326 9.7
2010-09-09 06:44:52 51°15.65 2°53.701 333.4 13 327 9.7
2010-09-09 06:44:57 51°15.665 2°53.685 333.6 13 326 9.8
2010-09-09 06:45:02 51°15.68 2°53.669 333.6 13 326 9.8
2010-09-09 06:45:06 51°15.691 2°53.656 333.4 13 326 9.8
2010-09-09 06:45:12 51°15.709 2°53.637 333.2 13 326 9.8
2010-09-09 06:45:17 51°15.724 2°53.621 333.2 13 326 9.8
2010-09-09 06:45:22 51°15.739 2°53.605 333.6 13 326 9.8
2010-09-09 06:45:27 51°15.754 2°53.589 333.4 13 326 9.8
2010-09-09 06:45:32 51°15.769 2°53.573 333.4 12.9 327 9.7
2010-09-09 06:45:37 51°15.784 2°53.558 333.5 12.9 328 9.8
2010-09-09 06:45:41 51°15.796 2°53.546 335.1 12.9 328 9.9
2010-09-09 06:45:47 51°15.815 2°53.529 335.7 12.9 329 10.1
2010-09-09 06:45:52 51°15.83 2°53.515 336.9 12.8 330 10
2010-09-09 06:45:57 51°15.846 2°53.5 337.6 12.9 330 9.9
2010-09-09 06:46:02 51°15.861 2°53.487 337.8 12.9 331 9.8
2010-09-09 06:46:07 51°15.877 2°53.473 338.3 12.8 331 9.8
2010-09-09 06:46:12 51°15.892 2°53.459 338.3 12.8 332 9.7
2010-09-09 06:46:17 51°15.908 2°53.446 338.5 12.8 332 9.8
2010-09-09 06:46:22 51°15.924 2°53.433 338.8 12.8 331 9.9
2010-09-09 06:46:27 51°15.94 2°53.42 340.1 12.8 333 9.9
2010-09-09 06:46:32 51°15.956 2°53.408 340.7 12.8 335 10
2010-09-09 06:46:37 51°15.972 2°53.396 341.9 12.8 335 9.9
2010-09-09 06:46:42 51°15.988 2°53.384 342.3 12.7 336 9.9
2010-09-09 06:46:47 51°16.004 2°53.372 342.7 12.7 335 10
2010-09-09 06:46:52 51°16.019 2°53.361 343.4 12.7 335 10.3
2010-09-09 06:46:57 51°16.035 2°53.349 343.4 12.7 335 10.1
2010-09-09 06:47:01 51°16.048 2°53.339 343.5 12.6 336 10.1
2010-09-09 06:47:07 51°16.067 2°53.325 344 12.7 335 10.2
2010-09-09 06:47:12 51°16.083 2°53.314 344 12.6 336 10.2
2010-09-09 06:47:17 51°16.099 2°53.303 344.2 12.6 335 10.2
2010-09-09 06:47:22 51°16.115 2°53.291 344.2 12.6 336 10.5
2010-09-09 06:47:26 51°16.128 2°53.282 344.1 12.7 335 10.2
2010-09-09 06:47:32 51°16.147 2°53.268 343.8 12.7 336 10.2
2010-09-09 06:47:37 51°16.163 2°53.256 344.2 12.6 335 10.1
2010-09-09 06:47:42 51°16.179 2°53.245 343.9 12.6 335 10.2
2010-09-09 06:47:47 51°16.195 2°53.233 344.1 12.6 335 10.2
2010-09-09 06:47:52 51°16.211 2°53.222 344.1 12.6 335 10.2
2010-09-09 06:47:57 51°16.227 2°53.21 344.2 12.6 335 10.2
2010-09-09 06:48:02 51°16.242 2°53.198 344 12.6 335 10.3
2010-09-09 06:48:07 51°16.258 2°53.187 343.9 12.6 336 10.2
2010-09-09 06:48:12 51°16.274 2°53.175 344 12.6 335 10.2
2010-09-09 06:48:17 51°16.29 2°53.163 344.1 12.6 336 10
2010-09-09 06:48:22 51°16.306 2°53.152 343.9 12.6 335 10.1
2010-09-09 06:48:27 51°16.322 2°53.14 343.8 12.6 335 10.3
2010-09-09 06:48:32 51°16.338 2°53.129 344 12.6 335 10.1
2010-09-09 06:48:37 51°16.353 2°53.117 344 12.6 335 10.2
2010-09-09 06:48:41 51°16.366 2°53.108 343.9 12.6 335 10.3
2010-09-09 06:48:47 51°16.385 2°53.094 343.7 12.6 335 10.1
2010-09-09 06:48:52 51°16.401 2°53.082 343.7 12.6 336 10.1
2010-09-09 06:48:57 51°16.417 2°53.07 343.9 12.7 335 10.1
2010-09-09 06:49:02 51°16.433 2°53.059 343.6 12.6 336 10.2
2010-09-09 06:49:07 51°16.449 2°53.047 343.8 12.6 335 10.1
2010-09-09 06:49:12 51°16.465 2°53.035 343.4 12.6 335 10.2
2010-09-09 06:49:17 51°16.48 2°53.023 343.4 12.7 334 10.2
2010-09-09 06:49:22 51°16.496 2°53.011 343.1 12.7 335 10.2
2010-09-09 06:49:27 51°16.512 2°52.999 343.4 12.6 335 9.9
2010-09-09 06:49:32 51°16.528 2°52.987 343.6 12.6 335 10.1
2010-09-09 06:49:37 51°16.544 2°52.975 343.5 12.6 335 9.9
2010-09-09 06:49:42 51°16.56 2°52.964 343.8 12.6 336 10
2010-09-09 06:49:47 51°16.576 2°52.953 344.1 12.5 336 9.8
2010-09-09 06:49:52 51°16.592 2°52.942 344.1 12.5 337 9.9
2010-09-09 06:49:57 51°16.608 2°52.931 344.3 12.6 338 10
2010-09-09 06:50:02 51°16.624 2°52.921 344.7 12.6 338 9.8
2010-09-09 06:50:06 51°16.637 2°52.912 344.2 12.6 338 9.8
2010-09-09 06:50:12 51°16.656 2°52.9 344.2 12.6 338 9.8
2010-09-09 06:50:17 51°16.672 2°52.889 344 12.6 337 9.5
2010-09-09 06:50:22 51°16.688 2°52.878 343.6 12.6 337 9.6
2010-09-09 06:50:27 51°16.704 2°52.866 343.4 12.6 336 9.5
2010-09-09 06:50:32 51°16.72 2°52.856 343.2 12.5 337 9.1
2010-09-09 06:50:37 51°16.736 2°52.846 343.7 12.5 338 9
2010-09-09 06:50:42 51°16.752 2°52.835 344 12.4 338 8.8
2010-09-09 06:50:47 51°16.768 2°52.825 343.7 12.3 338 8.5
2010-09-09 06:50:52 51°16.784 2°52.815 343.6 12.2 337 8.2
2010-09-09 06:50:57 51°16.799 2°52.805 343.4 12.1 338 8.2
2010-09-09 06:51:01 51°16.812 2°52.798 345 12 340 8.4
2010-09-09 06:51:07 51°16.831 2°52.787 345.7 12 341 7.8
2010-09-09 06:51:12 51°16.846 2°52.778 346.5 12 341 7.7
2010-09-09 06:51:17 51°16.862 2°52.77 347.3 12 342 7.8
2010-09-09 06:51:22 51°16.878 2°52.762 348 11.9 342 7.7
2010-09-09 06:51:27 51°16.894 2°52.754 348.5 11.9 342 7.7
2010-09-09 06:51:32 51°16.909 2°52.746 348.5 11.9 342 7.8
2010-09-09 06:51:37 51°16.925 2°52.739 349 11.9 343 7.8
2010-09-09 06:51:41 51°16.938 2°52.732 349 12 343 8.1
2010-09-09 06:51:47 51°16.958 2°52.723 349 12.1 343 8
2010-09-09 06:51:52 51°16.974 2°52.715 349.2 12.1 343 8
2010-09-09 06:51:57 51°16.99 2°52.707 349 12.2 342 8.2
2010-09-09 06:52:02 51°17.006 2°52.699 348.9 12.2 342 8.4
2010-09-09 06:52:06 51°17.019 2°52.692 348.5 12.2 342 8.3
2010-09-09 06:52:12 51°17.039 2°52.683 348.5 12.2 343 8.4
2010-09-09 06:52:17 51°17.055 2°52.675 348.9 12.3 343 8.4
2010-09-09 06:52:22 51°17.071 2°52.667 348.9 12.3 342 8.5
2010-09-09 06:52:27 51°17.087 2°52.658 348.5 12.2 341 8.1
2010-09-09 06:52:32 51°17.103 2°52.649 348.1 12.2 341 8.1
2010-09-09 06:52:37 51°17.119 2°52.641 348.3 12.1 342 8.1
2010-09-09 06:52:42 51°17.135 2°52.632 348.5 12.1 342 8
2010-09-09 06:52:47 51°17.151 2°52.624 348.7 12.1 342 8.2
2010-09-09 06:52:52 51°17.167 2°52.616 349 12.1 343 8.2
2010-09-09 06:52:57 51°17.183 2°52.608 349.4 12.2 343 8.1
2010-09-09 06:53:02 51°17.199 2°52.6 349.3 12.2 342 8.4
2010-09-09 06:53:07 51°17.215 2°52.592 349.2 12.2 343 8.5
2010-09-09 06:53:12 51°17.231 2°52.584 348.6 12.3 342 8.3
2010-09-09 06:53:17 51°17.248 2°52.578 350.3 12.1 347 8.4
2010-09-09 06:53:22 51°17.264 2°52.571 351.6 12.2 345 8.7
2010-09-09 06:53:27 51°17.281 2°52.566 352.8 12.2 350 8.5
2010-09-09 06:53:32 51°17.297 2°52.563 355.5 12 355 8.6
2010-09-09 06:53:37 51°17.314 2°52.562 359.8 11.9 357 8.6
2010-09-09 06:53:41 51°17.327 2°52.561 2.3 11.9 359 8.6
2010-09-09 06:53:47 51°17.347 2°52.563 4.9 11.9 3 8.8
2010-09-09 06:53:52 51°17.363 2°52.565 7.3 11.8 5 8.6
2010-09-09 06:53:57 51°17.379 2°52.57 11 11.7 11 8.7
2010-09-09 06:54:01 51°17.391 2°52.576 16 11.7 17 8.8
2010-09-09 06:54:07 51°17.41 2°52.585 18.7 11.7 18 8.7
2010-09-09 06:54:12 51°17.424 2°52.596 23.2 11.5 22 8.5
2010-09-09 06:54:17 51°17.439 2°52.605 25 11.5 22 8.7
2010-09-09 06:54:22 51°17.453 2°52.618 28.9 11.5 30 8.7
2010-09-09 06:54:27 51°17.467 2°52.631 31 11.5 31 8.6
2010-09-09 06:54:32 51°17.48 2°52.645 33 11.5 32 8.6
2010-09-09 06:54:37 51°17.493 2°52.66 35.5 11.6 36 8.6
2010-09-09 06:54:42 51°17.506 2°52.674 36.2 11.5 34 8.6
2010-09-09 06:54:46 51°17.516 2°52.689 39.3 11.6 44 8.7
2010-09-09 06:54:52 51°17.53 2°52.708 41.6 11.5 40 8.7
2010-09-09 06:54:57 51°17.541 2°52.727 43 11.5 47 8.5
2010-09-09 06:55:02 51°17.553 2°52.745 45.6 11.5 45 8.8
2010-09-09 06:55:07 51°17.563 2°52.764 46 11.5 48 8.7
2010-09-09 06:55:12 51°17.574 2°52.782 47.4 11.5 46 8.7
2010-09-09 06:55:17 51°17.585 2°52.802 48.1 11.5 49 8.7
2010-09-09 06:55:22 51°17.595 2°52.821 48.4 11.6 48 8.6
2010-09-09 06:55:27 51°17.606 2°52.84 49.3 11.6 47 8.6
2010-09-09 06:55:32 51°17.616 2°52.86 49.2 11.5 51 8.6
2010-09-09 06:55:37 51°17.628 2°52.878 49.2 11.5 46 8.6
2010-09-09 06:55:41 51°17.636 2°52.893 48.4 11.6 49 8.4
2010-09-09 06:55:47 51°17.649 2°52.916 48.7 11.5 47 8.5
2010-09-09 06:55:52 51°17.66 2°52.936 49.1 11.6 50 8.4
2010-09-09 06:55:57 51°17.671 2°52.954 49.1 11.6 46 8.5
2010-09-09 06:56:02 51°17.681 2°52.974 48.4 11.5 49 8.5
2010-09-09 06:56:06 51°17.69 2°52.988 49 11.6 46 8.5
2010-09-09 06:56:12 51°17.703 2°53.011 47.9 11.6 47 8.6
2010-09-09 06:56:17 51°17.714 2°53.029 46.9 11.5 46 8.5
2010-09-09 06:56:22 51°17.726 2°53.047 46.6 11.6 46 8.5
2010-09-09 06:56:27 51°17.737 2°53.065 46 11.6 44 8.7
2010-09-09 06:56:32 51°17.748 2°53.083 45.2 11.6 45 8.7
2010-09-09 06:56:37 51°17.76 2°53.1 45.2 11.6 42 8.6
2010-09-09 06:56:42 51°17.772 2°53.118 43.8 11.5 43 8.6
2010-09-09 06:56:46 51°17.782 2°53.13 43.2 11.5 40 8.5
2010-09-09 06:56:52 51°17.796 2°53.15 42.2 11.6 41 8.6
2010-09-09 06:56:57 51°17.809 2°53.166 40.5 11.6 38 8.7
2010-09-09 06:57:02 51°17.822 2°53.181 40.1 11.5 39 8.7
2010-09-09 06:57:07 51°17.835 2°53.197 39.4 11.5 37 8.9
2010-09-09 06:57:12 51°17.847 2°53.212 39.1 11.5 37 8.6
2010-09-09 06:57:17 51°17.86 2°53.228 38.8 11.5 38 8.7
2010-09-09 06:57:22 51°17.873 2°53.243 38.6 11.6 36 8.6
2010-09-09 06:57:27 51°17.886 2°53.258 38.5 11.5 36 8.7
2010-09-09 06:57:32 51°17.899 2°53.273 38 11.6 37 8.8
2010-09-09 06:57:37 51°17.912 2°53.288 38.5 11.5 35 8.7
2010-09-09 06:57:42 51°17.924 2°53.304 38.4 11.5 38 8.8
2010-09-09 06:57:47 51°17.937 2°53.318 38.4 11.5 34 8.7
2010-09-09 06:57:52 51°17.95 2°53.334 38.2 11.6 38 9
2010-09-09 06:57:57 51°17.963 2°53.348 38.3 11.6 35 8.8
2010-09-09 06:58:02 51°17.976 2°53.364 38.6 11.5 38 8.7
2010-09-09 06:58:07 51°17.989 2°53.378 38.5 11.5 36 8.7
2010-09-09 06:58:12 51°18.002 2°53.394 38.6 11.5 37 8.7
2010-09-09 06:58:17 51°18.015 2°53.409 38.6 11.6 36 8.9
2010-09-09 06:58:21 51°18.025 2°53.421 38.5 11.6 37 8.8
2010-09-09 06:58:27 51°18.04 2°53.439 39.1 11.5 36 8.8
2010-09-09 06:58:32 51°18.053 2°53.454 39.2 11.5 36 8.9
2010-09-09 06:58:37 51°18.066 2°53.469 38.5 11.6 37 9.1
2010-09-09 06:58:41 51°18.076 2°53.481 38.6 11.6 36 9
2010-09-09 06:58:47 51°18.092 2°53.5 38.2 11.6 37 8.9
2010-09-09 06:58:52 51°18.105 2°53.514 38.3 11.6 34 9.1
2010-09-09 06:58:57 51°18.118 2°53.529 38.3 11.5 37 9
2010-09-09 06:59:02 51°18.131 2°53.543 37.8 11.5 33 9
2010-09-09 06:59:07 51°18.144 2°53.559 38.7 11.6 37 9.1
2010-09-09 06:59:12 51°18.157 2°53.573 37.6 11.6 37 9.1
2010-09-09 06:59:17 51°18.17 2°53.589 38.8 11.5 37 9
2010-09-09 06:59:22 51°18.183 2°53.603 38.3 11.5 34 8.9
2010-09-09 06:59:27 51°18.196 2°53.619 38.4 11.5 36 9.1
2010-09-09 06:59:32 51°18.209 2°53.633 38 11.6 35 9.1
2010-09-09 06:59:37 51°18.222 2°53.647 37.8 11.5 33 9.1
2010-09-09 06:59:42 51°18.235 2°53.662 37.7 11.5 36 9.2
2010-09-09 06:59:47 51°18.248 2°53.676 37.8 11.5 34 9.1
2010-09-09 06:59:52 51°18.261 2°53.692 38.1 11.6 36 9.1
2010-09-09 06:59:57 51°18.275 2°53.706 38.5 11.5 34 9.1
2010-09-09 07:00:01 51°18.285 2°53.718 38.5 11.5 37 9.2
2010-09-09 07:00:07 51°18.301 2°53.735 38.2 11.5 33 9.3
2010-09-09 07:00:12 51°18.314 2°53.75 37.8 11.5 35 9.1
2010-09-09 07:00:17 51°18.327 2°53.764 37.4 11.5 33 9.2
2010-09-09 07:00:21 51°18.337 2°53.776 37.8 11.5 35 9.1
2010-09-09 07:00:27 51°18.354 2°53.791 36 11.5 31 9.3
2010-09-09 07:00:32 51°18.367 2°53.806 36.6 11.6 33 9.5
2010-09-09 07:00:37 51°18.381 2°53.818 34.5 11.6 29 9.3
2010-09-09 07:00:42 51°18.394 2°53.832 34.7 11.4 33 9.4
2010-09-09 07:00:46 51°18.405 2°53.841 34.4 11.4 31 9.4
2010-09-09 07:00:52 51°18.422 2°53.858 34.9 11.5 31 9.3
2010-09-09 07:00:57 51°18.435 2°53.871 34 11.6 32 9.6
2010-09-09 07:01:02 51°18.449 2°53.883 34.5 11.5 31 9.4
2010-09-09 07:01:07 51°18.463 2°53.897 34.1 11.5 32 9.6
2010-09-09 07:01:12 51°18.477 2°53.91 34.2 11.5 30 9.5
2010-09-09 07:01:17 51°18.49 2°53.923 34.5 11.6 31 9.3
2010-09-09 07:01:22 51°18.504 2°53.935 33.6 11.5 30 9.4
2010-09-09 07:01:26 51°18.515 2°53.946 34.4 11.5 32 9.5
2010-09-09 07:01:32 51°18.531 2°53.962 34.8 11.6 30 9.4
2010-09-09 07:01:37 51°18.545 2°53.975 34.8 11.5 31 9.7
2010-09-09 07:01:42 51°18.558 2°53.989 34.9 11.4 32 9.7
2010-09-09 07:01:47 51°18.572 2°54.002 35.3 11.5 30 9.5
2010-09-09 07:01:52 51°18.586 2°54.015 34.9 11.6 31 9.5
2010-09-09 07:01:57 51°18.599 2°54.029 34.6 11.6 32 9.6
2010-09-09 07:02:02 51°18.614 2°54.041 34.3 11.6 28 9.7
2010-09-09 07:02:07 51°18.627 2°54.055 34.2 11.5 33 9.8
2010-09-09 07:02:12 51°18.641 2°54.067 34.2 11.5 30 9.8
2010-09-09 07:02:17 51°18.655 2°54.081 34.8 11.6 32 9.8
2010-09-09 07:02:21 51°18.666 2°54.09 33.5 11.6 27 9.5
2010-09-09 07:02:27 51°18.682 2°54.106 33.7 11.5 32 9.7
2010-09-09 07:02:32 51°18.696 2°54.118 33.7 11.5 29 9.8
2010-09-09 07:02:37 51°18.71 2°54.132 33.9 11.5 32 9.8
2010-09-09 07:02:42 51°18.724 2°54.144 34 11.5 30 10.1
2010-09-09 07:02:47 51°18.737 2°54.158 34.1 11.4 32 9.8
2010-09-09 07:02:52 51°18.751 2°54.17 34.6 11.5 30 9.7
2010-09-09 07:02:57 51°18.765 2°54.184 34.5 11.5 32 9.9
2010-09-09 07:03:02 51°18.779 2°54.196 34 11.5 30 9.8
2010-09-09 07:03:07 51°18.792 2°54.209 34 11.4 30 9.8
2010-09-09 07:03:12 51°18.806 2°54.222 34.2 11.5 32 9.9
2010-09-09 07:03:17 51°18.82 2°54.236 34.4 11.5 32 10
2010-09-09 07:03:21 51°18.831 2°54.247 35.3 11.6 33 9.9
2010-09-09 07:03:27 51°18.847 2°54.263 36.2 11.5 31 9.8
2010-09-09 07:03:32 51°18.86 2°54.278 36.2 11.6 37 10.1
2010-09-09 07:03:37 51°18.873 2°54.292 37.3 11.6 32 10.1
2010-09-09 07:03:42 51°18.886 2°54.308 37.3 11.6 37 10.2
2010-09-09 07:03:47 51°18.899 2°54.322 38.4 11.6 34 10
2010-09-09 07:03:52 51°18.912 2°54.338 39 11.4 38 9.9
2010-09-09 07:03:57 51°18.924 2°54.353 40.1 11.5 37 9.9
2010-09-09 07:04:02 51°18.937 2°54.369 40.3 11.5 38 10.1
2010-09-09 07:04:07 51°18.95 2°54.384 40.5 11.5 37 10.1
2010-09-09 07:04:12 51°18.962 2°54.4 40.8 11.5 39 10.1
2010-09-09 07:04:17 51°18.975 2°54.415 41 11.4 38 10.2
2010-09-09 07:04:22 51°18.987 2°54.432 41.5 11.5 39 10
2010-09-09 07:04:27 51°19 2°54.447 41.4 11.5 37 9.9
2010-09-09 07:04:32 51°19.012 2°54.463 40.9 11.5 38 10
2010-09-09 07:04:37 51°19.025 2°54.478 40.8 11.6 35 10.1
2010-09-09 07:04:42 51°19.038 2°54.494 40.4 11.5 39 10.2
2010-09-09 07:04:47 51°19.05 2°54.509 40.8 11.5 37 10.1
2010-09-09 07:04:52 51°19.063 2°54.525 40.9 11.5 38 10.1
2010-09-09 07:04:57 51°19.076 2°54.54 41.4 11.5 38 10.1
2010-09-09 07:05:01 51°19.086 2°54.553 41.4 11.6 38 10.1
2010-09-09 07:05:07 51°19.101 2°54.572 41.5 11.6 39 10.3
2010-09-09 07:05:12 51°19.113 2°54.588 41.5 11.5 37 10.3
2010-09-09 07:05:17 51°19.126 2°54.604 41.7 11.5 39 10.3
2010-09-09 07:05:22 51°19.139 2°54.619 41.1 11.6 36 10.2
2010-09-09 07:05:26 51°19.149 2°54.632 41.1 11.6 38 10.2
2010-09-09 07:05:32 51°19.164 2°54.65 40.7 11.6 37 10.1
2010-09-09 07:05:37 51°19.177 2°54.666 40.7 11.5 38 10.4
2010-09-09 07:05:42 51°19.19 2°54.681 40.5 11.5 36 10.3
2010-09-09 07:05:47 51°19.202 2°54.696 41 11.5 37 10.4
2010-09-09 07:05:52 51°19.215 2°54.712 40.1 11.5 36 10.5
2010-09-09 07:05:57 51°19.228 2°54.727 40.7 11.6 37 10.5
2010-09-09 07:06:02 51°19.241 2°54.743 40.1 11.6 37 10.5
2010-09-09 07:06:07 51°19.254 2°54.758 40.5 11.6 36 10.4
2010-09-09 07:06:12 51°19.266 2°54.774 40.6 11.5 38 10.5
2010-09-09 07:06:17 51°19.279 2°54.789 40.6 11.6 38 10.6
2010-09-09 07:06:22 51°19.292 2°54.805 40.8 11.6 37 10.5
2010-09-09 07:06:27 51°19.305 2°54.821 40.7 11.6 38 10.5
2010-09-09 07:06:32 51°19.317 2°54.836 40.1 11.6 37 10.2
2010-09-09 07:06:37 51°19.33 2°54.852 41.3 11.5 38 10.4
2010-09-09 07:06:42 51°19.343 2°54.868 40.6 11.6 36 10.5
2010-09-09 07:06:47 51°19.356 2°54.884 40.7 11.5 38 10.5
2010-09-09 07:06:52 51°19.368 2°54.899 40 11.6 40 10.4
2010-09-09 07:06:57 51°19.381 2°54.914 41.1 11.6 36 10.6
2010-09-09 07:07:01 51°19.392 2°54.926 39.6 11.6 36 10.6
2010-09-09 07:07:07 51°19.407 2°54.945 40.9 11.5 36 10.6
2010-09-09 07:07:12 51°19.42 2°54.96 39.8 11.6 35 10.8
2010-09-09 07:07:17 51°19.433 2°54.976 40.2 11.6 37 10.6
2010-09-09 07:07:22 51°19.445 2°54.991 40 11.6 37 10.6
2010-09-09 07:07:26 51°19.455 2°55.004 40.7 11.6 36 10.7
2010-09-09 07:07:32 51°19.47 2°55.023 40.2 11.6 39 10.5
2010-09-09 07:07:37 51°19.484 2°55.037 40.3 11.6 35 10.7
2010-09-09 07:07:42 51°19.496 2°55.054 40.2 11.6 38 10.8
2010-09-09 07:07:47 51°19.509 2°55.068 40.5 11.6 36 10.8
2010-09-09 07:07:52 51°19.521 2°55.085 40.3 11.5 39 10.6
2010-09-09 07:07:57 51°19.534 2°55.1 40.9 11.5 36 10.5
2010-09-09 07:08:02 51°19.547 2°55.116 40.8 11.5 39 10.6
2010-09-09 07:08:06 51°19.557 2°55.128 40.9 11.5 36 10.6
2010-09-09 07:08:12 51°19.572 2°55.147 40.3 11.6 39 10.8
2010-09-09 07:08:17 51°19.585 2°55.161 39.8 11.6 36 10.7
2010-09-09 07:08:22 51°19.597 2°55.178 40.2 11.5 38 10.7
2010-09-09 07:08:27 51°19.611 2°55.192 39.8 11.5 35 10.8
2010-09-09 07:08:32 51°19.623 2°55.208 39.5 11.5 38 10.9
2010-09-09 07:08:37 51°19.636 2°55.223 39.8 11.5 36 10.7
2010-09-09 07:08:42 51°19.648 2°55.238 39.9 11.5 37 10.8
2010-09-09 07:08:47 51°19.661 2°55.253 40.2 11.4 36 10.7
2010-09-09 07:08:52 51°19.674 2°55.269 40 11.5 37 11.1
2010-09-09 07:08:57 51°19.687 2°55.284 39.5 11.5 36 11.1
2010-09-09 07:09:01 51°19.697 2°55.296 40 11.4 37 10.6
2010-09-09 07:09:07 51°19.712 2°55.314 40.3 11.4 36 10.9
2010-09-09 07:09:12 51°19.725 2°55.329 40 11.4 37 10.8
2010-09-09 07:09:17 51°19.737 2°55.344 40.4 11.4 37 10.9
2010-09-09 07:09:22 51°19.75 2°55.36 40.1 11.4 37 11.1
2010-09-09 07:09:27 51°19.762 2°55.375 40.3 11.4 37 11
2010-09-09 07:09:32 51°19.775 2°55.39 40.8 11.4 37 10.9
2010-09-09 07:09:37 51°19.788 2°55.406 40.9 11.5 38 11.1
2010-09-09 07:09:42 51°19.8 2°55.421 40.4 11.5 36 10.8
2010-09-09 07:09:47 51°19.813 2°55.437 41 11.5 38 10.9
2010-09-09 07:09:52 51°19.826 2°55.452 40.9 11.6 36 11.1
2010-09-09 07:09:57 51°19.838 2°55.468 40.7 11.5 39 11.2
2010-09-09 07:10:01 51°19.849 2°55.479 40.5 11.5 35 11.1
2010-09-09 07:10:07 51°19.864 2°55.498 40.3 11.5 38 10.9
2010-09-09 07:10:12 51°19.877 2°55.513 40.2 11.5 36 11.2
2010-09-09 07:10:17 51°19.89 2°55.528 40.3 11.5 37 10.9
2010-09-09 07:10:22 51°19.902 2°55.544 40.7 11.5 37 11
2010-09-09 07:10:27 51°19.915 2°55.558 40.2 11.5 37 10.9
2010-09-09 07:10:32 51°19.928 2°55.574 40.5 11.5 36 11.2
2010-09-09 07:10:37 51°19.941 2°55.588 40.1 11.5 36 11.2
2010-09-09 07:10:42 51°19.954 2°55.604 40.2 11.5 36 11.1
2010-09-09 07:10:47 51°19.967 2°55.619 40 11.5 37 11.1
2010-09-09 07:10:52 51°19.979 2°55.634 40.7 11.4 36 11.1
2010-09-09 07:10:57 51°19.992 2°55.649 40.6 11.4 38 11.1
2010-09-09 07:11:02 51°20.004 2°55.664 41.2 11.4 37 10.9
2010-09-09 07:11:07 51°20.017 2°55.68 40.7 11.4 38 10.9
2010-09-09 07:11:12 51°20.03 2°55.695 40.7 11.4 35 10.9
2010-09-09 07:11:17 51°20.042 2°55.711 40.8 11.4 39 11.2
2010-09-09 07:11:21 51°20.053 2°55.722 40.7 11.4 35 11.2
2010-09-09 07:11:27 51°20.068 2°55.741 40.7 11.4 37 11.2
2010-09-09 07:11:32 51°20.081 2°55.755 40 11.4 37 11.2
2010-09-09 07:11:37 51°20.093 2°55.771 41 11.4 38 11.4
2010-09-09 07:11:41 51°20.104 2°55.782 40 11.4 34 11.1
2010-09-09 07:11:47 51°20.118 2°55.801 40.4 11.4 37 11.2
2010-09-09 07:11:52 51°20.131 2°55.816 40 11.4 36 11.3
2010-09-09 07:11:57 51°20.144 2°55.831 41 11.4 37 11.3
2010-09-09 07:12:02 51°20.157 2°55.846 40.4 11.4 36 11.2
2010-09-09 07:12:06 51°20.166 2°55.858 40.6 11.3 38 11.2
2010-09-09 07:12:12 51°20.182 2°55.876 40.4 11.4 37 11.4
2010-09-09 07:12:17 51°20.194 2°55.892 40.7 11.3 38 11.2
2010-09-09 07:12:22 51°20.206 2°55.907 41 11.3 37 11.2
2010-09-09 07:12:27 51°20.219 2°55.922 40.6 11.3 37 11.3
2010-09-09 07:12:32 51°20.232 2°55.937 40.6 11.3 37 11.5
2010-09-09 07:12:37 51°20.244 2°55.952 40.5 11.3 36 11.4
2010-09-09 07:12:42 51°20.257 2°55.967 40.3 11.3 36 11.5
2010-09-09 07:12:47 51°20.27 2°55.981 40 11.4 36 11.4
2010-09-09 07:12:52 51°20.282 2°55.996 40.2 11.4 36 11.4
2010-09-09 07:12:57 51°20.295 2°56.011 40.2 11.5 36 11.4
2010-09-09 07:13:02 51°20.308 2°56.026 40.1 11.4 36 11.3
2010-09-09 07:13:07 51°20.321 2°56.042 40.6 11.4 38 11.4
2010-09-09 07:13:12 51°20.334 2°56.056 40.6 11.5 34 11.4
2010-09-09 07:13:17 51°20.346 2°56.072 40.3 11.4 39 11.5
2010-09-09 07:13:21 51°20.356 2°56.083 40.1 11.4 35 11.7
2010-09-09 07:13:27 51°20.372 2°56.101 40.3 11.5 37 11.5
2010-09-09 07:13:32 51°20.385 2°56.116 39.8 11.4 35 11.3
2010-09-09 07:13:37 51°20.397 2°56.131 40.1 11.4 37 11.5
2010-09-09 07:13:42 51°20.41 2°56.146 40.2 11.4 37 11.5
2010-09-09 07:13:47 51°20.422 2°56.161 40.7 11.4 37 11.5
2010-09-09 07:13:52 51°20.435 2°56.176 40.7 11.4 37 11.5
2010-09-09 07:13:57 51°20.448 2°56.191 40.1 11.4 35 11.6
2010-09-09 07:14:02 51°20.46 2°56.207 40.4 11.3 39 11.3
2010-09-09 07:14:06 51°20.47 2°56.218 40.5 11.3 33 11.5
2010-09-09 07:14:12 51°20.486 2°56.236 39.7 11.4 39 11.7
2010-09-09 07:14:17 51°20.498 2°56.25 40.2 11.3 33 11.4
2010-09-09 07:14:21 51°20.508 2°56.262 39.7 11.4 38 11.6
2010-09-09 07:14:27 51°20.524 2°56.28 40.1 11.3 35 11.7
2010-09-09 07:14:32 51°20.536 2°56.295 39.9 11.3 37 11.5
2010-09-09 07:14:37 51°20.549 2°56.31 40.5 11.3 37 11.7
2010-09-09 07:14:42 51°20.562 2°56.324 39.9 11.3 34 11.5
2010-09-09 07:14:46 51°20.571 2°56.337 39.8 11.3 39 11.5
2010-09-09 07:14:52 51°20.587 2°56.354 40.1 11.4 33 11.6
2010-09-09 07:14:57 51°20.599 2°56.37 40 11.4 39 11.6
2010-09-09 07:15:02 51°20.612 2°56.385 40.1 11.4 35 11.6
2010-09-09 07:15:07 51°20.625 2°56.4 40 11.4 38 11.7
2010-09-09 07:15:12 51°20.638 2°56.415 39.8 11.4 35 11.6
2010-09-09 07:15:17 51°20.65 2°56.431 40.3 11.5 38 11.7
2010-09-09 07:15:22 51°20.663 2°56.445 40.1 11.5 34 11.7
2010-09-09 07:15:27 51°20.676 2°56.461 39.6 11.5 38 11.8
2010-09-09 07:15:32 51°20.689 2°56.475 40.4 11.4 34 11.7
2010-09-09 07:15:37 51°20.701 2°56.49 39.6 11.5 37 11.7
2010-09-09 07:15:42 51°20.714 2°56.505 39.8 11.5 35 11.8
2010-09-09 07:15:47 51°20.727 2°56.519 39.7 11.4 35 11.5
2010-09-09 07:15:52 51°20.74 2°56.534 40.2 11.4 36 11.7
2010-09-09 07:15:57 51°20.753 2°56.549 40 11.5 36 12
2010-09-09 07:16:01 51°20.763 2°56.561 40 11.5 36 11.9
2010-09-09 07:16:07 51°20.778 2°56.579 40 11.4 36 11.9
2010-09-09 07:16:12 51°20.791 2°56.593 40.1 11.5 35 11.9
2010-09-09 07:16:17 51°20.804 2°56.608 40 11.5 35 11.7
2010-09-09 07:16:21 51°20.814 2°56.62 40.3 11.5 37 12
2010-09-09 07:16:27 51°20.83 2°56.637 40 11.5 34 11.8
2010-09-09 07:16:32 51°20.843 2°56.654 40 11.5 39 11.9
2010-09-09 07:16:37 51°20.856 2°56.667 40 11.5 33 11.9
2010-09-09 07:16:42 51°20.868 2°56.683 40.4 11.5 38 11.9
2010-09-09 07:16:46 51°20.88 2°56.693 39.9 11.6 32 12.2
2010-09-09 07:16:52 51°20.894 2°56.713 40.3 11.3 39 12.1
2010-09-09 07:16:57 51°20.908 2°56.726 40.3 11.4 32 12
2010-09-09 07:17:02 51°20.92 2°56.743 40.3 11.4 40 12.1
2010-09-09 07:17:07 51°20.933 2°56.756 40.8 11.4 32 11.9
2010-09-09 07:17:12 51°20.945 2°56.772 40.3 11.4 40 11.9
2010-09-09 07:17:17 51°20.958 2°56.787 40.8 11.3 34 12.2
2010-09-09 07:17:22 51°20.971 2°56.802 40.2 11.4 38 12.1
2010-09-09 07:17:27 51°20.984 2°56.816 40.5 11.4 35 12
2010-09-09 07:17:32 51°20.997 2°56.831 40 11.4 36 12.1
2010-09-09 07:17:37 51°21.01 2°56.846 40 11.4 36 12.1
2010-09-09 07:17:42 51°21.022 2°56.861 40.2 11.4 36 12.2
2010-09-09 07:17:47 51°21.035 2°56.876 40.6 11.4 36 12.1
2010-09-09 07:17:52 51°21.048 2°56.891 40.8 11.4 37 11.8
2010-09-09 07:17:57 51°21.06 2°56.906 40.8 11.4 36 12.2
2010-09-09 07:18:02 51°21.073 2°56.921 40.2 11.4 36 12
2010-09-09 07:18:07 51°21.086 2°56.936 40.6 11.4 36 12.3
2010-09-09 07:18:12 51°21.099 2°56.95 40.1 11.4 37 11.9
2010-09-09 07:18:17 51°21.111 2°56.965 40.7 11.3 36 12.1
2010-09-09 07:18:21 51°21.122 2°56.977 40.1 11.4 35 12
2010-09-09 07:18:27 51°21.137 2°56.994 40.1 11.4 35 12.1
2010-09-09 07:18:32 51°21.15 2°57.009 39.8 11.4 36 12.2
2010-09-09 07:18:37 51°21.163 2°57.024 40.4 11.4 36 12.3
2010-09-09 07:18:42 51°21.176 2°57.039 40.3 11.4 36 12.4
2010-09-09 07:18:46 51°21.186 2°57.05 40 11.4 37 12.5
2010-09-09 07:18:52 51°21.201 2°57.069 41.1 11.4 35 12.4
2010-09-09 07:18:57 51°21.214 2°57.083 40.1 11.4 35 12.1
2010-09-09 07:19:02 51°21.227 2°57.098 40 11.4 35 12.2
2010-09-09 07:19:07 51°21.24 2°57.112 40 11.4 35 12.3
2010-09-09 07:19:12 51°21.253 2°57.127 39.3 11.4 36 12.4
2010-09-09 07:19:17 51°21.265 2°57.142 40.5 11.4 37 12.4
2010-09-09 07:19:21 51°21.276 2°57.153 40 11.5 34 12.4
2010-09-09 07:19:27 51°21.291 2°57.171 39.5 11.4 36 12.3
2010-09-09 07:19:32 51°21.305 2°57.186 40.4 11.4 36 12.4
2010-09-09 07:19:37 51°21.319 2°57.2 39.4 11.4 34 12.2
2010-09-09 07:19:42 51°21.331 2°57.216 39.9 11.4 38 12.4
2010-09-09 07:19:47 51°21.344 2°57.23 40.1 11.5 33 12.7
2010-09-09 07:19:52 51°21.356 2°57.246 39.8 11.4 39 12.8
2010-09-09 07:19:57 51°21.369 2°57.259 40.7 11.4 31 12.5
2010-09-09 07:20:02 51°21.381 2°57.275 39 11.4 37 12.6
2010-09-09 07:20:07 51°21.394 2°57.288 40.3 11.3 33 12.5
2010-09-09 07:20:12 51°21.407 2°57.304 39.7 11.4 36 12.5
2010-09-09 07:20:17 51°21.42 2°57.318 40 11.3 36 12.8
2010-09-09 07:20:21 51°21.43 2°57.33 40.3 11.4 36 12.9
2010-09-09 07:20:27 51°21.445 2°57.348 40.5 11.4 36 12.9
2010-09-09 07:20:32 51°21.458 2°57.363 40.5 11.4 36 12.8
2010-09-09 07:20:37 51°21.471 2°57.378 40.5 11.4 36 12.6
2010-09-09 07:20:42 51°21.484 2°57.393 40.4 11.5 36 12.6
2010-09-09 07:20:47 51°21.497 2°57.408 40.1 11.4 36 12.7
2010-09-09 07:20:52 51°21.51 2°57.423 40.2 11.4 37 12.8
2010-09-09 07:20:57 51°21.522 2°57.437 40.7 11.4 36 12.8
2010-09-09 07:21:01 51°21.533 2°57.449 40.4 11.4 36 12.9
2010-09-09 07:21:07 51°21.548 2°57.467 41 11.3 37 12.8
2010-09-09 07:21:12 51°21.56 2°57.482 40.4 11.4 38 12.8
2010-09-09 07:21:17 51°21.573 2°57.497 41.1 11.3 36 13
2010-09-09 07:21:22 51°21.586 2°57.512 40.6 11.4 36 12.9
2010-09-09 07:21:26 51°21.595 2°57.524 41 11.3 36 13.1
2010-09-09 07:21:32 51°21.611 2°57.542 40.2 11.4 37 13.2
2010-09-09 07:21:37 51°21.624 2°57.557 40.6 11.3 36 12.9
2010-09-09 07:21:42 51°21.636 2°57.571 40 11.3 36 12.8
2010-09-09 07:21:47 51°21.648 2°57.586 40.6 11.3 36 12.8
2010-09-09 07:21:52 51°21.661 2°57.602 40.6 11.3 38 13
2010-09-09 07:21:57 51°21.673 2°57.616 40.9 11.3 35 13
2010-09-09 07:22:02 51°21.685 2°57.632 40.4 11.2 40 12.9
2010-09-09 07:22:07 51°21.698 2°57.646 40.7 11.3 33 13.3
2010-09-09 07:22:12 51°21.711 2°57.662 40.1 11.3 39 13.2
2010-09-09 07:22:17 51°21.723 2°57.675 40.5 11.3 34 13.1
2010-09-09 07:22:22 51°21.736 2°57.691 39.9 11.3 38 13.2
2010-09-09 07:22:27 51°21.749 2°57.706 40.6 11.3 36 13.1
2010-09-09 07:22:32 51°21.761 2°57.721 40.1 11.4 37 13.1
2010-09-09 07:22:37 51°21.774 2°57.736 40.1 11.4 36 13.2
2010-09-09 07:22:41 51°21.784 2°57.747 39.7 11.4 37 13.3
2010-09-09 07:22:47 51°21.799 2°57.765 40.2 11.3 36 13.1
2010-09-09 07:22:52 51°21.812 2°57.781 40.1 11.3 38 13.1
2010-09-09 07:22:57 51°21.824 2°57.795 40.1 11.3 35 13.2
2010-09-09 07:23:01 51°21.834 2°57.808 40.4 11.4 38 13.2
2010-09-09 07:23:07 51°21.85 2°57.825 39.9 11.4 35 13.5
2010-09-09 07:23:12 51°21.862 2°57.841 40.1 11.4 40 13.4
2010-09-09 07:23:17 51°21.875 2°57.854 39.9 11.3 32 13.2
2010-09-09 07:23:22 51°21.886 2°57.871 40.6 11.3 41 13.4
2010-09-09 07:23:26 51°21.897 2°57.881 39.7 11.4 31 13.4
2010-09-09 07:23:32 51°21.912 2°57.899 38 11.4 39 13.5
2010-09-09 07:23:37 51°21.925 2°57.914 39.7 11.3 36 13.6
2010-09-09 07:23:42 51°21.938 2°57.929 39.5 11.4 36 13.6
2010-09-09 07:23:47 51°21.951 2°57.944 39.3 11.4 37 13.6
2010-09-09 07:23:52 51°21.963 2°57.959 40.2 11.4 37 13.4
2010-09-09 07:23:57 51°21.976 2°57.974 40.2 11.4 36 13.4
2010-09-09 07:24:02 51°21.988 2°57.99 40.1 11.4 38 13.6
2010-09-09 07:24:07 51°22.001 2°58.005 40.5 11.4 37 13.5
2010-09-09 07:24:12 51°22.014 2°58.02 40.1 11.4 36 13.3
2010-09-09 07:24:17 51°22.026 2°58.035 40.2 11.4 37 13.6
2010-09-09 07:24:22 51°22.039 2°58.05 40 11.4 36 13.6
2010-09-09 07:24:27 51°22.051 2°58.065 39.7 11.4 38 13.9
2010-09-09 07:24:32 51°22.064 2°58.08 40.1 11.4 37 14
2010-09-09 07:24:37 51°22.076 2°58.096 40.3 11.4 39 13.8
2010-09-09 07:24:41 51°22.086 2°58.108 40.5 11.4 36 14.1
2010-09-09 07:24:47 51°22.101 2°58.126 39.9 11.4 38 13.9
2010-09-09 07:24:52 51°22.113 2°58.142 40.9 11.3 38 14.1
2010-09-09 07:24:57 51°22.126 2°58.157 39.9 11.3 37 13.9
2010-09-09 07:25:02 51°22.137 2°58.173 41.5 11.3 39 14.2
2010-09-09 07:25:07 51°22.15 2°58.188 40.1 11.4 36 14.1
2010-09-09 07:25:12 51°22.162 2°58.204 40.7 11.4 36 14.3
2010-09-09 07:25:17 51°22.175 2°58.219 39.8 11.4 38 14.4
2010-09-09 07:25:22 51°22.188 2°58.234 40.7 11.3 38 14.3
2010-09-09 07:25:26 51°22.198 2°58.246 40.1 11.5 37 14.3
2010-09-09 07:25:32 51°22.213 2°58.264 40 11.4 36 14.5
2010-09-09 07:25:37 51°22.226 2°58.28 40 11.5 39 14.5
2010-09-09 07:25:41 51°22.236 2°58.292 39.5 11.4 35 14.5
2010-09-09 07:25:47 51°22.251 2°58.311 39.8 11.4 40 14.4
2010-09-09 07:25:52 51°22.265 2°58.325 40 11.4 35 14.3
2010-09-09 07:25:57 51°22.277 2°58.341 40 11.3 40 14.3
2010-09-09 07:26:02 51°22.29 2°58.356 40.6 11.4 36 14.6
2010-09-09 07:26:06 51°22.299 2°58.368 40 11.4 39 14.2
2010-09-09 07:26:12 51°22.314 2°58.387 40.4 11.4 36 14.4
2010-09-09 07:26:17 51°22.326 2°58.403 40.6 11.5 40 14.6
2010-09-09 07:26:22 51°22.339 2°58.418 40.4 11.4 36 14.5
2010-09-09 07:26:27 51°22.351 2°58.434 40.7 11.5 41 14.5
2010-09-09 07:26:32 51°22.364 2°58.449 40.7 11.5 35 14.8
2010-09-09 07:26:37 51°22.377 2°58.466 40.2 11.5 40 14.7
2010-09-09 07:26:42 51°22.389 2°58.481 40.7 11.5 37 14.6
2010-09-09 07:26:47 51°22.402 2°58.497 40.4 11.5 38 14.8
2010-09-09 07:26:52 51°22.414 2°58.512 40.3 11.5 38 14.8
2010-09-09 07:26:57 51°22.427 2°58.528 40.3 11.5 37 14.7
2010-09-09 07:27:01 51°22.437 2°58.541 40 11.5 38 14.6
2010-09-09 07:27:07 51°22.453 2°58.559 40.1 11.4 37 14.8
2010-09-09 07:27:12 51°22.465 2°58.575 40.1 11.4 38 14.6
2010-09-09 07:27:17 51°22.478 2°58.59 39.8 11.5 37 15
2010-09-09 07:27:22 51°22.49 2°58.605 39.6 11.4 38 15
2010-09-09 07:27:27 51°22.503 2°58.621 40.2 11.4 37 15
2010-09-09 07:27:32 51°22.515 2°58.636 39.9 11.4 39 14.8
2010-09-09 07:27:37 51°22.528 2°58.652 40.1 11.4 37 15
2010-09-09 07:27:41 51°22.538 2°58.664 39.8 11.4 37 15
2010-09-09 07:27:47 51°22.553 2°58.682 40.3 11.3 38 15.1
2010-09-09 07:27:52 51°22.565 2°58.698 40 11.4 39 15.1
2010-09-09 07:27:57 51°22.578 2°58.713 40.4 11.4 38 15.2
2010-09-09 07:28:02 51°22.59 2°58.729 40.9 11.4 39 15.3
2010-09-09 07:28:06 51°22.6 2°58.741 40.2 11.4 36 15.2
2010-09-09 07:28:12 51°22.615 2°58.76 40.1 11.5 39 15.3
2010-09-09 07:28:17 51°22.628 2°58.776 40.4 11.5 38 15.3
2010-09-09 07:28:22 51°22.64 2°58.791 40.5 11.5 38 15.4
2010-09-09 07:28:27 51°22.653 2°58.807 40.1 11.5 39 15.6
2010-09-09 07:28:32 51°22.666 2°58.823 40.6 11.5 38 15.5
2010-09-09 07:28:37 51°22.678 2°58.839 40.4 11.6 38 15.5
2010-09-09 07:28:42 51°22.691 2°58.854 40.6 11.5 38 15.5
2010-09-09 07:28:47 51°22.703 2°58.871 40.8 11.6 40 15.8
2010-09-09 07:28:52 51°22.716 2°58.886 40.4 11.6 37 15.5
2010-09-09 07:28:57 51°22.728 2°58.903 40.7 11.6 39 15.6
2010-09-09 07:29:02 51°22.74 2°58.917 40 11.6 36 15.6
2010-09-09 07:29:07 51°22.752 2°58.934 40.2 11.5 39 15.7
2010-09-09 07:29:12 51°22.765 2°58.949 40.1 11.6 37 15.8
2010-09-09 07:29:17 51°22.778 2°58.965 40 11.5 38 15.6
2010-09-09 07:29:22 51°22.791 2°58.981 39.6 11.5 38 15.6
2010-09-09 07:29:27 51°22.803 2°58.997 40.1 11.5 38 15.9
2010-09-09 07:29:32 51°22.816 2°59.012 39.9 11.4 39 15.7
2010-09-09 07:29:37 51°22.828 2°59.028 40.8 11.3 39 15.8
2010-09-09 07:29:41 51°22.838 2°59.039 39.8 11.4 38 15.9
2010-09-09 07:29:47 51°22.853 2°59.059 41 11.4 39 15.8
2010-09-09 07:29:52 51°22.866 2°59.074 39.9 11.5 37 15.9
2010-09-09 07:29:57 51°22.878 2°59.09 40.1 11.4 39 16.1
2010-09-09 07:30:02 51°22.891 2°59.106 40.4 11.5 38 16
2010-09-09 07:30:06 51°22.901 2°59.118 40.4 11.4 38 15.9
2010-09-09 07:30:12 51°22.916 2°59.137 40.3 11.3 39 15.7
2010-09-09 07:30:17 51°22.928 2°59.152 40.6 11.3 38 15.9
2010-09-09 07:30:22 51°22.94 2°59.168 41 11.3 39 15.9
2010-09-09 07:30:27 51°22.953 2°59.183 41.1 11.4 38 16
2010-09-09 07:30:32 51°22.965 2°59.198 40.7 11.4 37 16.1
2010-09-09 07:30:37 51°22.978 2°59.214 40.6 11.4 38 16.1
2010-09-09 07:30:42 51°22.991 2°59.229 40.5 11.4 36 16.1
2010-09-09 07:30:47 51°23.003 2°59.244 39.8 11.4 37 16.3
2010-09-09 07:30:52 51°23.016 2°59.259 39.9 11.4 37 16.2
2010-09-09 07:30:57 51°23.029 2°59.273 39.8 11.4 34 16.1
2010-09-09 07:31:02 51°23.041 2°59.289 39.2 11.3 37 16.3
2010-09-09 07:31:07 51°23.054 2°59.303 40 11.3 36 16.5
2010-09-09 07:31:12 51°23.067 2°59.318 39.7 11.3 37 16.4
2010-09-09 07:31:17 51°23.079 2°59.333 40.2 11.2 37 16.3
2010-09-09 07:31:21 51°23.09 2°59.344 39.6 11.3 34 16.3
2010-09-09 07:31:27 51°23.104 2°59.364 40.4 11.3 40 16.6
2010-09-09 07:31:32 51°23.118 2°59.376 39.6 11.4 32 16.6
2010-09-09 07:31:37 51°23.129 2°59.394 40.1 11.3 41 16.6
2010-09-09 07:31:42 51°23.142 2°59.407 40.5 11.2 36 16.8
2010-09-09 07:31:47 51°23.154 2°59.422 39.9 11.2 37 16.6
2010-09-09 07:31:52 51°23.167 2°59.438 40.6 11.3 36 16.9
2010-09-09 07:31:57 51°23.18 2°59.451 39.3 11.3 35 16.7
2010-09-09 07:32:02 51°23.192 2°59.467 40.5 11.2 38 16.5
2010-09-09 07:32:06 51°23.202 2°59.478 40.4 11.2 34 16.6
2010-09-09 07:32:12 51°23.216 2°59.496 40 11.2 38 16.9
2010-09-09 07:32:17 51°23.229 2°59.511 40 11.2 35 16.9
2010-09-09 07:32:21 51°23.239 2°59.523 39.9 11.2 37 16.9
2010-09-09 07:32:27 51°23.254 2°59.54 40.5 11.2 36 16.7
2010-09-09 07:32:32 51°23.266 2°59.555 40.6 11.3 37 17
2010-09-09 07:32:37 51°23.279 2°59.57 39.9 11.3 37 16.9
2010-09-09 07:32:42 51°23.292 2°59.584 40 11.2 36 16.9
2010-09-09 07:32:46 51°23.302 2°59.596 39.9 11.2 37 17.2
2010-09-09 07:32:52 51°23.316 2°59.614 40.6 11.2 37 16.9
2010-09-09 07:32:57 51°23.329 2°59.629 41.4 11.2 37 16.9
2010-09-09 07:33:02 51°23.342 2°59.644 40.4 11.2 35 17.1
2010-09-09 07:33:07 51°23.354 2°59.659 40.9 11.1 37 16.9
2010-09-09 07:33:12 51°23.366 2°59.674 40.8 11.2 37 16.8
2010-09-09 07:33:17 51°23.379 2°59.689 40.7 11.2 37 16.9
2010-09-09 07:33:22 51°23.391 2°59.704 41.3 11.2 39 17
2010-09-09 07:33:27 51°23.404 2°59.718 41.1 11.3 35 17
2010-09-09 07:33:32 51°23.416 2°59.734 40.7 11.2 38 17
2010-09-09 07:33:37 51°23.429 2°59.748 40.7 11.2 35 16.9
2010-09-09 07:33:42 51°23.441 2°59.763 40.2 11.3 37 16.9
2010-09-09 07:33:47 51°23.454 2°59.778 40.4 11.2 35 17
2010-09-09 07:33:52 51°23.466 2°59.792 39.5 11.2 36 17
2010-09-09 07:33:57 51°23.479 2°59.807 40.2 11.2 36 17.2
2010-09-09 07:34:02 51°23.492 2°59.822 40.5 11.3 36 17.2
2010-09-09 07:34:07 51°23.504 2°59.836 40.3 11.3 36 17
2010-09-09 07:34:12 51°23.517 2°59.851 40.4 11.2 36 17
2010-09-09 07:34:17 51°23.53 2°59.865 40.3 11.3 34 17.2
2010-09-09 07:34:21 51°23.54 2°59.877 40 11.2 37 17.3
2010-09-09 07:34:27 51°23.556 2°59.893 40.2 11.1 32 17.3
2010-09-09 07:34:32 51°23.568 2°59.906 40 11 30 17.3
2010-09-09 07:34:37 51°23.583 2°59.914 34.8 10.8 22 17.4
2010-09-09 07:34:41 51°23.594 2°59.918 25.5 10.9 12 17.3
2010-09-09 07:34:47 51°23.613 2°59.919 18.7 11.1 4 17.4
2010-09-09 07:34:52 51°23.629 2°59.919 12 11.3 -999 17.5
2010-09-09 07:34:57 51°23.645 2°59.918 8.4 11.5 358 17.5
2010-09-09 07:35:02 51°23.661 2°59.916 6.2 11.7 355 17.4
2010-09-09 07:35:07 51°23.677 2°59.916 6.3 11.7 -999 17.5
2010-09-09 07:35:12 51°23.693 2°59.915 6.9 11.9 357 17.4
2010-09-09 07:35:17 51°23.71 2°59.915 7.2 11.8 1 17.6
2010-09-09 07:35:22 51°23.726 2°59.915 7.3 11.9 358 17.3
2010-09-09 07:35:27 51°23.743 2°59.915 7.4 11.9 -999 17.4
2010-09-09 07:35:32 51°23.759 2°59.914 7.7 11.9 358 17.4
2010-09-09 07:35:37 51°23.776 2°59.914 7.4 11.9 1 17.2
2010-09-09 07:35:41 51°23.789 2°59.915 8.1 11.9 -999 16.8
2010-09-09 07:35:47 51°23.809 2°59.915 8.2 11.9 -999 16.8
2010-09-09 07:35:52 51°23.825 2°59.917 9.2 11.8 4 16.6
2010-09-09 07:35:57 51°23.841 2°59.917 10.2 11.9 1 16.3
2010-09-09 07:36:02 51°23.858 2°59.92 11.2 11.8 6 16.3
2010-09-09 07:36:07 51°23.874 2°59.921 11.3 11.9 2 16.3
2010-09-09 07:36:12 51°23.89 2°59.925 12.2 11.7 9 16
2010-09-09 07:36:17 51°23.906 2°59.927 13.2 11.8 4 15.9
2010-09-09 07:36:21 51°23.919 2°59.932 14.2 11.7 11 15.7
2010-09-09 07:36:27 51°23.939 2°59.936 14.8 11.8 7 15.8
2010-09-09 07:36:32 51°23.954 2°59.942 15.9 11.7 12 15.8
2010-09-09 07:36:37 51°23.97 2°59.946 16.6 11.7 10 15.8
2010-09-09 07:36:41 51°23.983 2°59.951 17.2 11.6 13 15.8
2010-09-09 07:36:47 51°24.002 2°59.957 17.8 11.7 12 15.7
2010-09-09 07:36:52 51°24.017 2°59.964 18.2 11.7 15 15.6
2010-09-09 07:36:57 51°24.033 2°59.97 19.5 11.6 13 15.4
2010-09-09 07:37:02 51°24.048 2°59.978 21.2 11.6 19 15.5
2010-09-09 07:37:06 51°24.061 2°59.983 21.8 11.7 14 15.5
2010-09-09 07:37:12 51°24.079 2°59.994 22.6 11.5 19 15.5
2010-09-09 07:37:17 51°24.095 3°0 22.9 11.6 16 15.4
2010-09-09 07:37:21 51°24.106 3°0.008 24.4 11.5 21 15.6
2010-09-09 07:37:27 51°24.125 3°0.018 24.8 11.6 19 15.4
2010-09-09 07:37:32 51°24.139 3°0.028 25.5 11.5 22 15.3
2010-09-09 07:37:37 51°24.154 3°0.036 26 11.6 20 15.4
2010-09-09 07:37:42 51°24.169 3°0.046 26.2 11.5 23 15.3
2010-09-09 07:37:47 51°24.184 3°0.056 27.2 11.5 22 15.2
2010-09-09 07:37:52 51°24.198 3°0.066 28 11.5 24 15.3
2010-09-09 07:37:57 51°24.213 3°0.077 28.7 11.5 25 15.1
2010-09-09 07:38:02 51°24.228 3°0.087 29.1 11.6 22 15
2010-09-09 07:38:07 51°24.242 3°0.099 28.9 11.6 27 15.2
2010-09-09 07:38:12 51°24.257 3°0.108 29.1 11.7 22 15.1
2010-09-09 07:38:17 51°24.272 3°0.119 28.4 11.6 25 14.9
2010-09-09 07:38:22 51°24.287 3°0.129 28.4 11.6 25 14.9
2010-09-09 07:38:27 51°24.301 3°0.139 28.1 11.6 24 14.7
2010-09-09 07:38:32 51°24.316 3°0.151 28.7 11.7 25 14.8
2010-09-09 07:38:37 51°24.331 3°0.16 28.2 11.7 23 14.8
2010-09-09 07:38:41 51°24.342 3°0.17 28.4 11.6 27 14.8
2010-09-09 07:38:47 51°24.36 3°0.181 28.3 11.6 22 14.6
2010-09-09 07:38:52 51°24.375 3°0.192 28.6 11.6 24 14.6
2010-09-09 07:38:57 51°24.39 3°0.201 27.2 11.6 22 14.5
2010-09-09 07:39:02 51°24.404 3°0.213 28.6 11.5 27 14.6
2010-09-09 07:39:06 51°24.416 3°0.221 29 11.6 23 14.5
2010-09-09 07:39:12 51°24.433 3°0.234 28.4 11.5 26 14.8
2010-09-09 07:39:17 51°24.448 3°0.245 29.1 11.5 25 14.3
2010-09-09 07:39:22 51°24.462 3°0.256 30 11.5 27 14.3
2010-09-09 07:39:27 51°24.477 3°0.267 29.9 11.6 23 14.3
2010-09-09 07:39:32 51°24.491 3°0.278 29.3 11.5 28 14.4
2010-09-09 07:39:37 51°24.506 3°0.289 30.3 11.6 24 14.3
2010-09-09 07:39:42 51°24.52 3°0.3 29.3 11.5 27 14.4
2010-09-09 07:39:47 51°24.534 3°0.313 30.6 11.5 28 14.5
2010-09-09 07:39:52 51°24.549 3°0.323 30.7 11.6 25 14.4
2010-09-09 07:39:57 51°24.562 3°0.336 30.5 11.5 29 14.8
2010-09-09 07:40:02 51°24.577 3°0.347 30.2 11.6 27 15.1
2010-09-09 07:40:07 51°24.591 3°0.36 30.9 11.7 29 15.6
2010-09-09 07:40:12 51°24.606 3°0.371 30.2 11.7 25 17.2
2010-09-09 07:40:17 51°24.62 3°0.384 30.2 11.7 30 18.2
2010-09-09 07:40:21 51°24.632 3°0.393 30.3 11.9 26 18.3
2010-09-09 07:40:27 51°24.649 3°0.408 30.1 11.9 28 18.5
2010-09-09 07:40:32 51°24.664 3°0.419 29.9 11.8 27 18
2010-09-09 07:40:37 51°24.679 3°0.431 29.7 11.9 27 17.9
2010-09-09 07:40:41 51°24.69 3°0.441 29.8 11.9 27 17.9
2010-09-09 07:40:47 51°24.708 3°0.456 30 12 28 18
2010-09-09 07:40:52 51°24.723 3°0.468 29.9 12 26 17.7
2010-09-09 07:40:57 51°24.737 3°0.48 29.6 12 28 18.3
2010-09-09 07:41:02 51°24.752 3°0.492 30.1 12 27 17.9
2010-09-09 07:41:06 51°24.764 3°0.502 29.8 12 27 17.8
2010-09-09 07:41:12 51°24.782 3°0.517 29.6 11.9 27 18
2010-09-09 07:41:17 51°24.796 3°0.529 29.6 11.9 27 18.2
2010-09-09 07:41:22 51°24.811 3°0.541 29.3 12 27 17.9
2010-09-09 07:41:27 51°24.826 3°0.553 29.9 12 26 17.9
2010-09-09 07:41:32 51°24.841 3°0.565 29.5 12 28 18.1
2010-09-09 07:41:37 51°24.855 3°0.578 29.6 12 27 17.7
2010-09-09 07:41:42 51°24.87 3°0.591 30.3 12 29 17
2010-09-09 07:41:46 51°24.882 3°0.6 29.5 12 27 15.7
2010-09-09 07:41:52 51°24.899 3°0.615 29.8 11.9 29 15.5
2010-09-09 07:41:57 51°24.914 3°0.627 29.9 11.9 28 15.5
2010-09-09 07:42:02 51°24.929 3°0.64 30 12 29 15.6
2010-09-09 07:42:07 51°24.943 3°0.652 30.2 12 27 15.1
2010-09-09 07:42:12 51°24.958 3°0.665 29.3 11.9 29 14.8
2010-09-09 07:42:17 51°24.973 3°0.678 29.7 12 28 15.2
2010-09-09 07:42:21 51°24.984 3°0.687 29.3 11.9 27 14.5
2010-09-09 07:42:27 51°25.002 3°0.703 29.2 11.9 30 14.5
2010-09-09 07:42:32 51°25.016 3°0.715 29.7 11.9 28 14.4
2010-09-09 07:42:37 51°25.031 3°0.727 29.4 11.9 28 14.2
2010-09-09 07:42:42 51°25.045 3°0.74 29.1 11.9 28 14.1
2010-09-09 07:42:47 51°25.06 3°0.751 28.9 11.8 27 13.8
2010-09-09 07:42:52 51°25.074 3°0.765 29.8 11.8 29 13.6
2010-09-09 07:42:57 51°25.089 3°0.776 29.4 11.9 26 13.5
2010-09-09 07:43:01 51°25.1 3°0.787 29.2 11.9 30 13.6
2010-09-09 07:43:07 51°25.118 3°0.801 29.5 11.8 27 13.3
2010-09-09 07:43:12 51°25.132 3°0.814 29.5 11.8 30 13.3
2010-09-09 07:43:17 51°25.146 3°0.826 29.8 11.8 27 13.5
2010-09-09 07:43:21 51°25.158 3°0.836 29.4 11.8 28 13.4
2010-09-09 07:43:27 51°25.175 3°0.851 29.8 11.8 29 13.1
2010-09-09 07:43:32 51°25.19 3°0.864 29.8 11.8 28 13
2010-09-09 07:43:37 51°25.204 3°0.876 29.8 11.8 29 12.9
2010-09-09 07:43:42 51°25.218 3°0.89 29.9 11.8 29 13.2
2010-09-09 07:43:46 51°25.23 3°0.9 30 11.8 29 12.6
2010-09-09 07:43:52 51°25.247 3°0.914 29.5 11.8 29 12.9
2010-09-09 07:43:57 51°25.261 3°0.927 29.7 11.9 29 12.9
2010-09-09 07:44:01 51°25.273 3°0.936 29.4 11.8 28 12.8
2010-09-09 07:44:07 51°25.29 3°0.951 29.7 11.8 27 12.9
2010-09-09 07:44:12 51°25.305 3°0.964 29.1 11.8 27 12.7
2010-09-09 07:44:17 51°25.319 3°0.976 29.3 11.8 28 12.7
2010-09-09 07:44:22 51°25.334 3°0.988 29.1 11.9 27 12.5
2010-09-09 07:44:27 51°25.348 3°1.002 29.6 11.9 30 12.6
2010-09-09 07:44:32 51°25.363 3°1.013 29.1 11.9 26 12.4
2010-09-09 07:44:37 51°25.377 3°1.026 29.6 11.8 29 12.5
2010-09-09 07:44:42 51°25.392 3°1.038 29.1 11.9 27 12.7
2010-09-09 07:44:47 51°25.406 3°1.051 29.1 11.9 28 12.8
2010-09-09 07:44:52 51°25.421 3°1.063 29 11.8 27 12.4
2010-09-09 07:44:57 51°25.435 3°1.075 28.9 11.8 28 12.3
2010-09-09 07:45:02 51°25.45 3°1.087 28.7 11.8 27 12.5
2010-09-09 07:45:07 51°25.464 3°1.1 28.6 11.8 28 12.5
2010-09-09 07:45:12 51°25.479 3°1.111 28.6 11.8 26 12.2
2010-09-09 07:45:17 51°25.493 3°1.124 28.4 11.7 29 12.4
2010-09-09 07:45:21 51°25.505 3°1.133 28.7 11.8 27 12.4
2010-09-09 07:45:27 51°25.522 3°1.148 29 11.7 28 12.1
2010-09-09 07:45:32 51°25.537 3°1.159 28.8 11.6 28 12.1
2010-09-09 07:45:37 51°25.551 3°1.172 29.9 11.7 30 12.2
2010-09-09 07:45:42 51°25.566 3°1.183 28.6 11.7 24 12.2
2010-09-09 07:45:46 51°25.577 3°1.194 29.2 11.7 30 12
2010-09-09 07:45:52 51°25.595 3°1.207 28.7 11.8 25 12.1
2010-09-09 07:45:57 51°25.608 3°1.221 29 11.7 30 11.9
2010-09-09 07:46:01 51°25.62 3°1.23 28.8 11.7 26 11.4
2010-09-09 07:46:07 51°25.637 3°1.246 30.1 11.7 32 11.6
2010-09-09 07:46:12 51°25.651 3°1.258 31 11.6 29 11.5
2010-09-09 07:46:17 51°25.664 3°1.272 32 11.5 32 11.4
2010-09-09 07:46:22 51°25.678 3°1.285 32 11.6 30 11.4
2010-09-09 07:46:26 51°25.689 3°1.297 32.9 11.6 32 11.5
2010-09-09 07:46:32 51°25.705 3°1.314 33 11.5 34 11.2
2010-09-09 07:46:37 51°25.719 3°1.327 33.9 11.6 30 10.9
2010-09-09 07:46:42 51°25.732 3°1.341 32.3 11.6 32 11.1
2010-09-09 07:46:47 51°25.746 3°1.355 33.1 11.5 34 10.9
2010-09-09 07:46:52 51°25.759 3°1.368 33.5 11.5 32 10.9
2010-09-09 07:46:57 51°25.772 3°1.383 33.7 11.5 34 10.8
2010-09-09 07:47:02 51°25.786 3°1.396 33.5 11.5 32 10.6
2010-09-09 07:47:07 51°25.799 3°1.411 33.8 11.6 34 10.5
2010-09-09 07:47:12 51°25.813 3°1.425 34.3 11.4 35 10.6
2010-09-09 07:47:17 51°25.825 3°1.44 35.7 11.5 37 10.4
2010-09-09 07:47:21 51°25.836 3°1.451 35.4 11.5 33 10.5
2010-09-09 07:47:27 51°25.851 3°1.469 34.9 11.5 36 10.5
2010-09-09 07:47:32 51°25.865 3°1.483 35.5 11.4 37 10.3
2010-09-09 07:47:37 51°25.877 3°1.499 36.4 11.4 36 10.2
2010-09-09 07:47:41 51°25.888 3°1.51 35.7 11.4 34 10.2
2010-09-09 07:47:47 51°25.903 3°1.528 35.8 11.4 36 10.3
2010-09-09 07:47:52 51°25.917 3°1.542 35.7 11.4 34 10.2
2010-09-09 07:47:57 51°25.929 3°1.557 35.3 11.4 36 10.1
2010-09-09 07:48:02 51°25.942 3°1.571 35.6 11.4 34 10.1
2010-09-09 07:48:06 51°25.953 3°1.582 34.8 11.3 35 10.1
2010-09-09 07:48:12 51°25.968 3°1.599 35.2 11.3 33 9.9
2010-09-09 07:48:17 51°25.981 3°1.614 35.3 11.4 36 9.9
2010-09-09 07:48:22 51°25.994 3°1.627 35.7 11.4 34 9.9
2010-09-09 07:48:26 51°26.004 3°1.639 35.4 11.3 36 9.9
2010-09-09 07:48:32 51°26.02 3°1.656 35.8 11.3 34 9.8
2010-09-09 07:48:37 51°26.032 3°1.671 35.4 11.2 34 9.7
2010-09-09 07:48:41 51°26.043 3°1.682 35.7 11.3 34 9.8
2010-09-09 07:48:47 51°26.058 3°1.699 34.9 11.3 35 9.7
2010-09-09 07:48:52 51°26.071 3°1.713 35.9 11.3 34 9.8
2010-09-09 07:48:57 51°26.084 3°1.727 35.3 11.2 35 9.8
2010-09-09 07:49:02 51°26.097 3°1.741 35.9 11.2 34 9.7
2010-09-09 07:49:07 51°26.11 3°1.755 34.9 11.2 35 9.7
2010-09-09 07:49:12 51°26.123 3°1.769 35.6 11.2 34 9.7
2010-09-09 07:49:17 51°26.135 3°1.783 35.8 11.3 35 9.6
2010-09-09 07:49:22 51°26.148 3°1.797 35.7 11.2 34 9.2
2010-09-09 07:49:27 51°26.161 3°1.811 35.6 11 35 8.1
2010-09-09 07:49:32 51°26.174 3°1.824 35.2 10.8 33 8.2
2010-09-09 07:49:37 51°26.186 3°1.837 34.9 10.7 33 9.1
2010-09-09 07:49:41 51°26.196 3°1.848 34.9 10.9 34 9.5
2010-09-09 07:49:47 51°26.211 3°1.864 35.3 11.1 34 9.9
2010-09-09 07:49:52 51°26.224 3°1.879 35.8 11.3 35 10.1
2010-09-09 07:49:57 51°26.237 3°1.892 35.9 11.3 33 10.2
2010-09-09 07:50:01 51°26.247 3°1.905 36.5 11.3 37 8.9
2010-09-09 07:50:07 51°26.263 3°1.92 35.9 11.1 31 9.4
2010-09-09 07:50:12 51°26.275 3°1.935 35.8 10.9 37 9.8
2010-09-09 07:50:17 51°26.288 3°1.948 36 11 32 10.2
2010-09-09 07:50:22 51°26.3 3°1.962 35.5 11 36 10.2
2010-09-09 07:50:26 51°26.31 3°1.974 36.1 11.1 35 10.2
2010-09-09 07:50:32 51°26.325 3°1.991 36.2 11.2 36 10.6
2010-09-09 07:50:37 51°26.338 3°2.005 36.4 11.1 34 10.4
2010-09-09 07:50:42 51°26.351 3°2.019 35.8 11.1 36 10.1
2010-09-09 07:50:47 51°26.364 3°2.031 35.6 10.9 31 10.4
2010-09-09 07:50:52 51°26.376 3°2.046 35 10.9 36 10.7
2010-09-09 07:50:57 51°26.389 3°2.059 35.7 11.1 32 10.8